Time;durP1;ratioP1;P1;durP2;ratioP2;P2;SDS_P1;SDS_P2;PMS_P1;PMS_P2;Temp;Humidity;BMP_temperature;BMP_pressure;BME280_temperature;BME280_humidity;BME280_pressure;Samples;Min_cycle;Max_cycle;Signal;HPM_P1;HPM_P2
2023/09/11 00:00:47;;;;;;;62.20;32.90;;;;;;;9.65;100.00;99489.31;4862079;29;20053;-56
2023/09/11 00:03:13;;;;;;;73.40;34.63;;;;;;;9.67;100.00;99487.22;4861901;29;20071;-55
2023/09/11 00:05:38;;;;;;;67.82;34.60;;;;;;;9.67;100.00;99485.38;4861784;29;20042;-56
2023/09/11 00:08:04;;;;;;;66.50;34.08;;;;;;;9.64;99.72;99479.75;4862178;29;20500;-56
2023/09/11 00:10:32;;;;;;;61.95;32.22;;;;;;;9.63;100.00;99478.94;4861610;29;20508;-55
2023/09/11 00:12:59;;;;;;;67.82;32.47;;;;;;;9.61;99.42;99481.00;4861927;29;20055;-53
2023/09/11 00:15:25;;;;;;;64.15;32.67;;;;;;;9.63;100.00;99478.13;4861809;29;20087;-53
2023/09/11 00:17:50;;;;;;;61.70;32.63;;;;;;;9.62;99.91;99479.97;4861932;29;20484;-56
2023/09/11 00:20:16;;;;;;;57.85;32.03;;;;;;;9.60;99.57;99475.94;4861658;29;20097;-58
2023/09/11 00:22:42;;;;;;;58.47;31.85;;;;;;;9.57;99.32;99476.41;4860366;29;20046;-56
2023/09/11 00:25:08;;;;;;;64.25;33.20;;;;;;;9.54;99.20;99475.03;4861842;29;20050;-57
2023/09/11 00:27:33;;;;;;;66.25;34.58;;;;;;;9.52;99.62;99469.13;4861728;29;20488;-56
2023/09/11 00:29:59;;;;;;;58.42;32.28;;;;;;;9.48;99.23;99466.16;4861366;29;20057;-56
2023/09/11 00:32:25;;;;;;;58.03;31.33;;;;;;;9.46;98.97;99467.41;4861794;29;20052;-57
2023/09/11 00:34:51;;;;;;;55.25;30.48;;;;;;;9.43;98.46;99470.50;4861446;29;20041;-58
2023/09/11 00:37:17;;;;;;;60.15;32.35;;;;;;;9.40;97.98;99466.47;4844807;29;20428;-56
2023/09/11 00:39:42;;;;;;;62.90;32.35;;;;;;;9.39;97.58;99469.38;4861595;29;20053;-55
2023/09/11 00:42:08;;;;;;;66.85;34.00;;;;;;;9.40;97.93;99471.78;4860030;29;20185;-54
2023/09/11 00:44:33;;;;;;;64.13;33.47;;;;;;;9.37;96.39;99469.56;4861450;29;20157;-56
2023/09/11 00:46:59;;;;;;;61.60;31.95;;;;;;;9.33;95.51;99463.94;4859855;29;20555;-53
2023/09/11 00:49:25;;;;;;;61.03;32.00;;;;;;;9.30;96.35;99474.19;4859294;29;20128;-58
2023/09/11 00:51:51;;;;;;;58.33;30.75;;;;;;;9.26;96.30;99465.88;4861223;29;20190;-57
2023/09/11 00:54:21;;;;;;;54.70;30.00;;;;;;;9.24;96.37;99472.44;4844437;29;20432;-56
2023/09/11 00:56:47;;;;;;;61.97;33.10;;;;;;;9.24;96.88;99467.16;4861427;29;20187;-56
2023/09/11 00:59:14;;;;;;;72.80;34.78;;;;;;;9.25;98.19;99461.63;4861234;29;20365;-57
2023/09/11 01:01:44;;;;;;;57.97;30.77;;;;;;;9.28;98.76;99470.94;4861272;29;20412;-56
2023/09/11 01:04:10;;;;;;;61.50;31.63;;;;;;;9.27;97.58;99464.84;4861002;29;20079;-57
2023/09/11 01:06:36;;;;;;;57.58;30.02;;;;;;;9.29;98.54;99456.66;4859703;29;20050;-59
2023/09/11 01:09:02;;;;;;;58.08;31.65;;;;;;;9.32;99.15;99467.63;4859746;29;20057;-56
2023/09/11 01:11:28;;;;;;;62.70;32.05;;;;;;;9.35;99.13;99466.34;4844123;29;20427;-55
2023/09/11 01:13:54;;;;;;;61.60;30.75;;;;;;;9.32;97.74;99462.34;4859573;29;20041;-57
2023/09/11 01:16:20;;;;;;;68.70;34.50;;;;;;;9.32;98.25;99456.22;4859465;29;20045;-54
2023/09/11 01:18:55;;;;;;;69.93;35.63;;;;;;;9.30;98.85;99455.66;4861095;29;20205;-57
2023/09/11 01:21:27;;;;;;;71.10;34.28;;;;;;;9.27;99.48;99456.91;4859708;29;20045;-56
2023/09/11 01:24:26;;;;;;;67.22;34.58;;;;;;;9.25;99.45;99460.81;4860881;29;20052;-57
2023/09/11 01:27:19;;;;;;;64.57;33.85;;;;;;;9.25;99.79;99460.81;4859201;29;20064;-56
2023/09/11 01:29:45;;;;;;;64.88;31.80;;;;;;;9.22;99.23;99453.34;4860621;29;20061;-56
2023/09/11 01:32:11;;;;;;;66.38;32.45;;;;;;;9.20;99.32;99455.38;4859153;29;20049;-58
2023/09/11 01:34:36;;;;;;;57.67;30.17;;;;;;;9.12;98.75;99448.59;4859116;29;20089;-58
2023/09/11 01:37:02;;;;;;;60.53;31.25;;;;;;;9.09;98.11;99455.16;4858972;29;20041;-56
2023/09/11 01:39:28;;;;;;;54.42;28.42;;;;;;;9.05;97.61;99447.88;4843004;29;20432;-56
2023/09/11 01:41:58;;;;;;;51.60;28.17;;;;;;;9.01;97.46;99442.25;4860214;29;20064;-57
2023/09/11 01:44:26;;;;;;;;;;;;;;;9.00;96.99;99451.22;4828994;29;20456;-56
2023/09/11 01:46:53;;;;;;;49.97;26.33;;;;;;;8.98;97.52;99452.47;4858926;29;20124;-57
2023/09/11 01:49:20;;;;;;;63.95;32.13;;;;;;;8.96;98.13;99447.38;4859058;29;20064;-57
2023/09/11 01:51:46;;;;;;;55.55;27.95;;;;;;;8.98;98.50;99449.81;4843460;29;20057;-57
2023/09/11 01:54:12;;;;;;;58.83;30.20;;;;;;;9.00;99.31;99448.56;4858451;29;20056;-57
2023/09/11 01:56:38;;;;;;;68.57;34.35;;;;;;;9.01;98.68;99441.44;4858240;29;20049;-55
2023/09/11 01:59:04;;;;;;;53.33;28.48;;;;;;;9.05;99.56;99442.59;4858630;29;20420;-57
2023/09/11 02:01:30;;;;;;;50.90;27.45;;;;;;;9.03;98.27;99442.00;4843307;29;20048;-58
2023/09/11 02:03:55;;;;;;;55.05;27.95;;;;;;;9.04;98.46;99443.63;4860170;29;20065;-56
2023/09/11 02:06:21;;;;;;;56.03;28.80;;;;;;;9.02;97.53;99446.47;4859842;29;20049;-56
2023/09/11 02:08:46;;;;;;;54.78;28.67;;;;;;;9.00;96.90;99443.28;4859846;29;20136;-57
2023/09/11 02:11:12;;;;;;;48.20;25.73;;;;;;;8.96;97.06;99439.47;4858529;29;20064;-57
2023/09/11 02:13:38;;;;;;;55.38;27.70;;;;;;;8.96;96.63;99446.59;4858692;29;20045;-56
2023/09/11 02:16:04;;;;;;;50.85;26.35;;;;;;;8.93;97.19;99439.09;4858482;29;20053;-57
2023/09/11 02:18:29;;;;;;;49.13;26.65;;;;;;;8.93;96.69;99441.75;4859927;29;20045;-55
2023/09/11 02:21:15;;;;;;;58.63;33.03;;;;;;;8.91;96.66;99438.53;4845969;29;20104;-56
2023/09/11 02:23:41;;;;;;;55.40;28.70;;;;;;;8.89;96.13;99440.59;4858509;29;20504;-56
2023/09/11 02:26:08;;;;;;;44.70;24.88;;;;;;;8.85;95.14;99434.94;4858311;29;20136;-57
2023/09/11 02:28:33;;;;;;;54.90;28.02;;;;;;;8.85;95.35;99442.88;4858396;29;20504;-56
2023/09/11 02:30:59;;;;;;;52.90;27.75;;;;;;;8.86;96.96;99433.91;4859681;29;20064;-58
2023/09/11 02:33:25;;;;;;;48.20;26.77;;;;;;;8.90;97.16;99445.66;4859591;29;20050;-59
2023/09/11 02:35:54;;;;;;;54.30;28.40;;;;;;;8.92;97.39;99440.16;4859552;29;20053;-58
2023/09/11 02:38:20;;;;;;;59.00;31.02;;;;;;;8.92;97.53;99437.50;4859318;29;20084;-55
2023/09/11 02:40:46;;;;;;;63.83;31.58;;;;;;;8.93;98.04;99441.75;4842192;29;20053;-55
2023/09/11 02:43:12;;;;;;;54.10;28.65;;;;;;;8.93;98.53;99436.47;4859351;29;20053;-56
2023/09/11 02:45:37;;;;;;;54.85;28.60;;;;;;;8.92;97.87;99438.31;4859383;29;20061;-58
2023/09/11 02:48:03;;;;;;;57.85;30.10;;;;;;;8.91;98.41;99431.38;4859384;29;20049;-56
2023/09/11 02:50:29;;;;;;;53.80;28.58;;;;;;;8.90;97.80;99428.97;4857961;29;20053;-57
2023/09/11 02:52:55;;;;;;;59.63;30.45;;;;;;;8.87;97.08;99438.97;4859362;29;20484;-57
2023/09/11 02:55:21;;;;;;;57.15;30.70;;;;;;;8.88;97.87;99434.47;4858062;29;20049;-56
2023/09/11 02:57:46;;;;;;;52.03;28.48;;;;;;;8.86;97.34;99434.72;4859475;29;20098;-56
2023/09/11 03:00:12;;;;;;;56.00;28.58;;;;;;;8.87;98.28;99436.31;4859537;29;20101;-57
2023/09/11 03:02:39;;;;;;;50.75;26.88;;;;;;;8.90;97.99;99436.91;4858203;29;20049;-56
2023/09/11 03:05:05;;;;;;;52.70;27.60;;;;;;;8.89;96.57;99435.31;4857813;29;20046;-57
2023/09/11 03:07:30;;;;;;;64.88;31.65;;;;;;;8.97;98.31;99434.97;4857910;29;20049;-54
2023/09/11 03:09:56;;;;;;;51.33;28.27;;;;;;;9.00;96.33;99439.81;4858910;29;20054;-58
2023/09/11 03:12:22;;;;;;;49.42;26.92;;;;;;;8.99;95.02;99432.91;4843703;29;20037;-57
2023/09/11 03:14:52;;;;;;;45.42;26.45;;;;;;;8.97;93.64;99438.44;4861634;29;20065;-58
2023/09/11 03:17:17;;;;;;;37.92;22.65;;;;;;;8.97;92.64;99434.97;4861663;29;20132;-56
2023/09/11 03:19:44;;;;;;;42.10;23.92;;;;;;;8.94;91.96;99435.41;4861514;29;20526;-57
2023/09/11 03:22:10;;;;;;;37.13;22.05;;;;;;;8.91;90.79;99435.88;4861663;29;20049;-57
2023/09/11 03:24:35;;;;;;;38.88;23.25;;;;;;;8.97;91.94;99441.09;4861773;29;20053;-57
2023/09/11 03:27:02;;;;;;;48.88;25.85;;;;;;;9.13;92.85;99444.13;4861289;29;20500;-55
2023/09/11 03:29:28;;;;;;;49.70;27.35;;;;;;;9.32;94.37;99438.53;4846188;29;20050;-57
2023/09/11 03:31:54;;;;;;;62.38;31.13;;;;;;;9.53;94.18;99439.00;4862602;29;20067;-57
2023/09/11 03:34:20;;;;;;;59.38;30.42;;;;;;;9.77;96.14;99439.81;4862736;29;20049;-58
2023/09/11 03:36:46;;;;;;;49.25;27.35;;;;;;;9.90;88.20;99434.28;4861183;29;20045;-57
2023/09/11 03:39:12;;;;;;;44.63;25.10;;;;;;;10.08;86.57;99435.19;4862506;29;20052;-58
2023/09/11 03:41:38;;;;;;;41.60;23.98;;;;;;;10.29;85.05;99436.44;4845352;29;20061;-55
2023/09/11 03:44:04;;;;;;;49.20;27.35;;;;;;;10.49;85.51;99436.84;4861230;29;20516;-57
2023/09/11 03:46:31;;;;;;;53.60;30.10;;;;;;;10.71;85.05;99429.06;4860591;29;20064;-56
2023/09/11 03:48:57;;;;;;;51.60;29.98;;;;;;;10.87;78.84;99430.94;4860986;29;20489;-57
2023/09/11 03:51:22;;;;;;;50.83;29.92;;;;;;;11.00;79.43;99424.53;4862086;29;20061;-58
2023/09/11 03:53:49;;;;;;;52.40;29.85;;;;;;;11.20;78.00;99433.88;4860829;29;20514;-56
2023/09/11 03:56:20;;;;;;;58.05;31.35;;;;;;;11.39;78.24;99435.25;4845816;29;20053;-56
2023/09/11 03:58:46;;;;;;;47.05;28.98;;;;;;;11.55;78.06;99431.78;4845416;29;20041;-58
2023/09/11 04:01:16;;;;;;;52.17;29.83;;;;;;;11.83;76.30;99430.88;4860254;29;20420;-57
2023/09/11 04:03:42;;;;;;;53.85;32.72;;;;;;;12.01;75.49;99437.78;4860722;29;20072;-54
2023/09/11 04:06:08;;;;;;;44.15;26.77;;;;;;;12.21;74.34;99439.91;4860616;29;20061;-56
2023/09/11 04:08:34;;;;;;;43.88;26.90;;;;;;;12.40;73.59;99436.94;4861682;29;20045;-55
2023/09/11 04:11:01;;;;;;;50.70;28.63;;;;;;;12.57;71.81;99439.53;4860503;29;20508;-59
2023/09/11 04:13:27;;;;;;;47.67;28.98;;;;;;;12.70;71.42;99453.22;4860646;29;20041;-58
2023/09/11 04:15:53;;;;;;;40.30;25.92;;;;;;;12.82;70.86;99445.13;4861756;29;20041;-59
2023/09/11 04:18:18;;;;;;;45.60;27.30;;;;;;;12.86;70.42;99445.44;4860635;29;20077;-57
2023/09/11 04:20:45;;;;;;;52.83;29.95;;;;;;;12.88;70.90;99449.47;4860403;29;20076;-58
2023/09/11 04:23:11;;;;;;;50.90;30.40;;;;;;;12.89;71.42;99444.94;4844177;29;20045;-55
2023/09/11 04:25:37;;;;;;;55.72;31.15;;;;;;;12.80;71.37;99438.47;4859410;29;20045;-57
2023/09/11 04:28:03;;;;;;;53.25;30.58;;;;;;;12.72;71.37;99451.13;4861683;29;20116;-55
2023/09/11 04:30:28;;;;;;;62.90;31.40;;;;;;;12.73;72.48;99439.47;4861341;29;20049;-59
2023/09/11 04:32:54;;;;;;;56.38;30.80;;;;;;;12.76;72.93;99440.78;4859860;29;20072;-55
2023/09/11 04:35:20;;;;;;;51.00;28.85;;;;;;;12.65;73.68;99434.59;4844590;29;20539;-56
2023/09/11 04:37:46;;;;;;;55.28;29.60;;;;;;;12.60;74.35;99433.72;4843705;29;20100;-55
2023/09/11 04:40:11;;;;;;;50.42;29.48;;;;;;;12.49;74.89;99438.13;4829240;29;20049;-58
2023/09/11 04:42:37;;;;;;;44.47;26.15;;;;;;;12.44;75.14;99443.38;4861441;29;20061;-56
2023/09/11 04:45:04;;;;;;;42.47;26.67;;;;;;;12.36;75.20;99436.66;4861158;29;20053;-56
2023/09/11 04:47:31;;;;;;;43.50;28.08;;;;;;;12.31;75.67;99444.56;4860139;29;20124;-55
2023/09/11 04:49:58;;;;;;;44.78;26.13;;;;;;;12.25;76.49;99446.34;4859773;29;20060;-55
2023/09/11 04:52:24;;;;;;;43.90;26.45;;;;;;;12.28;76.51;99437.06;4861324;29;20049;-54
2023/09/11 04:54:50;;;;;;;45.15;27.30;;;;;;;12.31;76.81;99444.56;4859707;29;20511;-55
2023/09/11 04:57:16;;;;;;;43.60;27.92;;;;;;;12.37;76.08;99437.44;4859712;29;20050;-56
2023/09/11 04:59:42;;;;;;;48.42;28.38;;;;;;;12.42;76.51;99434.84;4859746;29;20409;-57
2023/09/11 05:02:11;;;;;;;53.95;29.05;;;;;;;12.50;77.20;99442.41;4859656;29;20485;-58
2023/09/11 05:04:38;;;;;;;55.50;30.40;;;;;;;12.57;77.52;99442.19;4859534;29;20124;-57
2023/09/11 05:07:04;;;;;;;51.80;30.05;;;;;;;12.64;77.84;99445.47;4858484;29;20518;-55
2023/09/11 05:09:31;;;;;;;49.88;29.83;;;;;;;12.72;77.75;99440.50;4856295;29;20049;-57
2023/09/11 05:11:57;;;;;;;53.47;29.98;;;;;;;12.81;77.91;99446.19;4840204;29;20196;-57
2023/09/11 05:14:23;;;;;;;51.38;30.65;;;;;;;12.92;77.45;99441.78;4838925;29;20136;-58
2023/09/11 05:16:49;;;;;;;54.05;30.90;;;;;;;13.04;77.56;99437.09;4838942;29;20054;-57
2023/09/11 05:19:15;;;;;;;56.63;31.10;;;;;;;13.15;77.18;99435.34;4838982;29;20054;-55
2023/09/11 05:21:41;;;;;;;56.75;30.88;;;;;;;13.18;77.38;99435.63;4841333;29;20053;-57
2023/09/11 05:24:07;;;;;;;57.67;31.58;;;;;;;13.24;77.36;99435.69;4840684;29;20061;-54
2023/09/11 05:26:32;;;;;;;55.80;31.35;;;;;;;13.32;77.26;99433.38;4852802;29;20037;-57
2023/09/11 05:28:58;;;;;;;55.78;32.05;;;;;;;13.38;77.74;99436.88;4878464;29;20156;-55
2023/09/11 05:31:24;;;;;;;54.50;32.80;;;;;;;13.46;77.44;99433.75;4878563;29;20049;-56
2023/09/11 05:33:49;;;;;;;59.15;33.33;;;;;;;13.57;77.66;99437.28;4879034;29;20053;-54
2023/09/11 05:36:15;;;;;;;66.88;32.63;;;;;;;13.67;77.32;99432.03;4877885;29;20045;-56
2023/09/11 05:38:41;;;;;;;57.58;31.90;;;;;;;13.72;77.11;99433.94;4878994;29;20489;-53
2023/09/11 05:41:07;;;;;;;59.78;32.78;;;;;;;13.83;76.35;99432.94;4877039;29;20080;-55
2023/09/11 05:43:32;;;;;;;58.75;33.92;;;;;;;13.92;76.49;99435.94;4878330;29;20100;-55
2023/09/11 05:45:58;;;;;;;57.25;33.47;;;;;;;13.99;76.27;99436.50;4877903;29;20605;-55
2023/09/11 05:48:24;;;;;;;63.65;32.85;;;;;;;14.06;76.52;99427.22;4875259;29;20048;-55
2023/09/11 05:50:49;;;;;;;63.92;33.00;;;;;;;14.14;76.51;99423.22;4858890;29;20148;-55
2023/09/11 05:53:15;;;;;;;60.58;35.58;;;;;;;14.21;76.66;99420.34;4876449;29;20097;-56
2023/09/11 05:55:41;;;;;;;59.15;33.38;;;;;;;14.30;77.34;99418.78;4878231;29;20041;-58
2023/09/11 05:58:06;;;;;;;60.47;34.83;;;;;;;14.40;76.17;99416.13;4878147;29;20097;-56
2023/09/11 06:00:32;;;;;;;61.10;33.95;;;;;;;14.49;74.99;99411.91;4878087;29;20097;-54
2023/09/11 06:02:58;;;;;;;62.08;34.97;;;;;;;14.54;74.66;99414.63;4878250;29;20440;-55
2023/09/11 06:05:25;;;;;;;57.97;33.75;;;;;;;14.61;74.17;99411.69;4877087;29;20172;-59
2023/09/11 06:07:51;;;;;;;58.13;33.13;;;;;;;14.71;73.79;99413.59;4878027;29;20127;-52
2023/09/11 06:10:17;;;;;;;55.20;33.42;;;;;;;14.80;73.47;99413.88;4876838;29;20053;-56
2023/09/11 06:12:43;;;;;;;59.60;34.00;;;;;;;14.88;73.47;99416.84;4877557;29;20051;-53
2023/09/11 06:15:09;;;;;;;62.00;34.63;;;;;;;14.89;73.25;99412.31;4877911;29;20045;-56
2023/09/11 06:17:34;;;;;;;57.17;33.00;;;;;;;14.97;72.98;99414.41;4878492;29;20084;-55
2023/09/11 06:20:00;;;;;;;61.92;35.10;;;;;;;14.92;72.88;99415.22;4877351;29;20084;-57
2023/09/11 06:22:26;;;;;;;55.65;33.03;;;;;;;14.95;72.52;99413.91;4878012;29;20053;-51
2023/09/11 06:24:53;;;;;;;58.78;34.25;;;;;;;15.02;71.92;99406.44;4877532;29;20126;-57
2023/09/11 06:27:18;;;;;;;61.17;33.28;;;;;;;15.07;72.52;99411.78;4878766;29;20077;-57
2023/09/11 06:29:44;;;;;;;61.65;33.78;;;;;;;15.17;72.01;99410.97;4877357;29;20053;-54
2023/09/11 06:32:12;;;;;;;57.10;33.78;;;;;;;15.26;71.57;99411.25;4878035;29;20052;-56
2023/09/11 06:34:38;;;;;;;56.05;30.58;;;;;;;15.33;71.35;99407.25;4878086;29;20052;-55
2023/09/11 06:37:06;;;;;;;52.58;29.75;;;;;;;15.42;71.10;99405.63;4877436;29;20092;-52
2023/09/11 06:39:31;;;;;;;54.53;30.45;;;;;;;15.49;70.79;99401.88;4877707;29;20540;-54
2023/09/11 06:41:57;;;;;;;56.75;32.17;;;;;;;15.57;70.29;99409.34;4877277;29;20086;-55
2023/09/11 06:44:23;;;;;;;56.00;30.63;;;;;;;15.62;70.11;99404.81;4877953;29;20041;-58
2023/09/11 06:46:49;;;;;;;50.22;29.42;;;;;;;15.71;69.69;99405.09;4875458;29;20044;-54
2023/09/11 06:49:15;;;;;;;51.67;30.63;;;;;;;15.78;69.26;99405.59;4832708;29;20050;-54
2023/09/11 06:51:40;;;;;;;47.92;28.55;;;;;;;15.87;68.85;99405.84;4851000;29;20140;-56
2023/09/11 06:54:09;;;;;;;60.05;30.67;;;;;;;15.95;68.80;99405.28;4877461;29;20116;-54
2023/09/11 06:56:36;;;;;;;51.22;30.30;;;;;;;15.95;68.62;99404.50;4877383;29;20037;-57
2023/09/11 06:59:02;;;;;;;52.55;30.80;;;;;;;16.00;68.35;99407.97;4877359;29;20061;-58
2023/09/11 07:01:29;;;;;;;51.70;29.38;;;;;;;16.07;68.01;99403.13;4877222;29;20043;-54
2023/09/11 07:03:55;;;;;;;45.08;28.38;;;;;;;16.08;67.92;99395.88;4877743;29;20057;-56
2023/09/11 07:06:20;;;;;;;41.92;27.05;;;;;;;16.18;67.88;99401.22;4877209;29;20469;-59
2023/09/11 07:08:46;;;;;;;48.80;28.40;;;;;;;16.21;67.38;99413.25;4875885;29;20051;-55
2023/09/11 07:11:11;;;;;;;46.28;27.10;;;;;;;16.26;67.24;99405.19;4877119;29;20049;-55
2023/09/11 07:13:38;;;;;;;44.83;28.10;;;;;;;16.34;66.75;99408.06;4877617;29;20510;-55
2023/09/11 07:16:04;;;;;;;50.72;27.63;;;;;;;16.40;66.53;99416.88;4876809;29;20044;-55
2023/09/11 07:18:31;;;;;;;44.40;26.95;;;;;;;16.45;66.37;99410.72;4875948;29;20055;-53
2023/09/11 07:20:57;;;;;;;41.90;24.08;;;;;;;16.52;66.17;99408.53;4876969;29;20089;-56
2023/09/11 07:23:25;;;;;;;41.00;24.80;;;;;;;16.60;65.85;99401.81;4877531;29;20108;-56
2023/09/11 07:25:51;;;;;;;43.42;25.60;;;;;;;16.69;65.51;99406.28;4875743;29;20507;-55
2023/09/11 07:28:17;;;;;;;38.72;23.60;;;;;;;16.71;64.58;99404.16;4875427;29;20049;-54
2023/09/11 07:30:44;;;;;;;44.13;24.52;;;;;;;16.68;64.20;99403.91;4876826;29;20079;-54
2023/09/11 07:33:10;;;;;;;35.88;22.92;;;;;;;16.69;63.94;99408.97;4876233;29;20083;-55
2023/09/11 07:35:36;;;;;;;40.67;23.05;;;;;;;16.74;64.07;99403.59;4875567;29;20102;-55
2023/09/11 07:38:01;;;;;;;41.05;23.65;;;;;;;16.77;63.72;99402.28;4865547;29;20473;-56
2023/09/11 07:40:27;;;;;;;35.20;21.67;;;;;;;16.81;63.36;99405.97;4849956;29;20056;-58
2023/09/11 07:42:54;;;;;;;35.13;21.55;;;;;;;16.90;63.65;99406.19;4859478;29;20085;-56
2023/09/11 07:45:21;;;;;;;43.33;23.00;;;;;;;16.96;63.57;99397.84;4858758;29;20053;-55
2023/09/11 07:47:47;;;;;;;38.17;23.27;;;;;;;16.97;63.35;99404.00;4868957;29;20048;-55
2023/09/11 07:50:12;;;;;;;41.38;23.40;;;;;;;16.99;63.90;99399.97;4877261;29;20084;-57
2023/09/11 07:52:38;;;;;;;37.97;22.85;;;;;;;17.05;63.72;99397.25;4876974;29;20197;-55
2023/09/11 07:55:06;;;;;;;35.15;21.65;;;;;;;17.09;63.53;99388.38;4869690;29;20053;-56
2023/09/11 07:57:33;;;;;;;36.88;22.98;;;;;;;17.18;63.71;99401.97;4870778;29;20045;-58
2023/09/11 08:00:04;;;;;;;34.58;22.48;;;;;;;17.19;62.92;99395.53;4863542;29;20057;-58
2023/09/11 08:02:31;;;;;;;34.33;21.98;;;;;;;17.22;62.83;99397.66;4879887;29;20383;-56
2023/09/11 08:04:57;;;;;;;36.05;22.02;;;;;;;17.24;62.34;99401.66;4880443;29;20051;-58
2023/09/11 08:07:23;;;;;;;36.97;22.20;;;;;;;17.28;62.31;99401.88;4880082;29;20045;-57
2023/09/11 08:09:48;;;;;;;35.85;21.77;;;;;;;17.31;61.89;99398.63;4880156;29;20505;-59
2023/09/11 08:12:15;;;;;;;36.90;22.17;;;;;;;17.28;62.40;99407.25;4871994;29;20049;-57
2023/09/11 08:14:41;;;;;;;33.78;22.08;;;;;;;17.20;62.36;99400.59;4860353;29;20093;-52
2023/09/11 08:17:06;;;;;;;36.35;22.10;;;;;;;17.15;62.59;99400.66;4853922;29;20189;-56
2023/09/11 08:19:32;;;;;;;34.17;20.73;;;;;;;17.21;62.33;99396.06;4880003;29;20045;-57
2023/09/11 08:21:58;;;;;;;33.30;20.73;;;;;;;17.36;62.03;99397.81;4880072;29;20499;-57
2023/09/11 08:24:23;;;;;;;35.13;21.02;;;;;;;17.43;61.34;99400.94;4878767;29;20044;-56
2023/09/11 08:26:49;;;;;;;34.13;20.08;;;;;;;17.40;61.48;99385.44;4880159;29;20048;-57
2023/09/11 08:29:15;;;;;;;32.85;18.92;;;;;;;17.41;60.69;99387.03;4878464;29;20053;-57
2023/09/11 08:31:41;;;;;;;29.67;19.40;;;;;;;17.42;60.81;99391.31;4880011;29;20056;-54
2023/09/11 08:34:07;;;;;;;29.02;19.20;;;;;;;17.44;60.50;99395.31;4878657;29;20415;-55
2023/09/11 08:36:33;;;;;;;29.65;18.15;;;;;;;17.44;59.90;99394.50;4880010;29;20041;-55
2023/09/11 08:38:59;;;;;;;28.38;18.98;;;;;;;17.44;60.41;99389.97;4878270;29;20052;-55
2023/09/11 08:41:26;;;;;;;31.73;18.80;;;;;;;17.48;59.96;99398.22;4862937;29;20061;-55
2023/09/11 08:43:52;;;;;;;32.67;19.60;;;;;;;17.59;59.64;99394.38;4879592;29;20522;-57
2023/09/11 08:46:18;;;;;;;32.63;19.27;;;;;;;17.76;59.30;99388.56;4879700;29;20056;-55
2023/09/11 08:48:45;;;;;;;28.55;16.90;;;;;;;17.96;58.03;99390.25;4878298;29;20128;-56
2023/09/11 08:51:24;;;;;;;25.40;13.43;;;;;;;18.26;55.81;99390.97;4862778;29;20060;-53
2023/09/11 08:53:51;;;;;;;9.00;5.88;;;;;;;18.55;51.37;99382.78;4878048;29;20554;-56
2023/09/11 08:56:17;;;;;;;13.35;8.27;;;;;;;18.79;50.35;99382.75;4879570;29;20511;-55
2023/09/11 08:58:43;;;;;;;12.48;8.43;;;;;;;18.96;51.18;99379.53;4878228;29;20056;-55
2023/09/11 09:01:09;;;;;;;13.77;7.78;;;;;;;19.07;50.44;99380.97;4878272;29;20068;-58
2023/09/11 09:03:35;;;;;;;13.40;7.60;;;;;;;19.07;51.11;99380.97;4877711;29;20045;-55
2023/09/11 09:06:01;;;;;;;12.48;7.72;;;;;;;18.97;50.65;99381.94;4879412;29;20037;-56
2023/09/11 09:08:27;;;;;;;13.32;5.68;;;;;;;18.78;51.00;99381.16;4878003;29;20045;-54
2023/09/11 09:10:53;;;;;;;9.18;5.38;;;;;;;18.64;51.93;99381.03;4878420;29;20052;-54
2023/09/11 09:13:19;;;;;;;9.00;5.47;;;;;;;18.54;52.59;99370.47;4872246;29;20045;-56
2023/09/11 09:15:45;;;;;;;8.05;5.10;;;;;;;18.47;52.61;99375.38;4878147;29;20562;-55
2023/09/11 09:18:11;;;;;;;8.63;5.72;;;;;;;18.53;52.33;99372.38;4879288;29;20045;-55
2023/09/11 09:20:38;;;;;;;9.43;6.03;;;;;;;18.64;52.22;99372.19;4877882;29;20077;-55
2023/09/11 09:23:04;;;;;;;11.20;7.38;;;;;;;18.75;51.64;99373.69;4878988;29;20056;-57
2023/09/11 09:25:30;;;;;;;9.68;6.40;;;;;;;18.82;51.27;99377.59;4879032;29;20049;-59
2023/09/11 09:27:57;;;;;;;6.72;5.28;;;;;;;18.92;50.71;99370.47;4879054;29;20052;-56
2023/09/11 09:30:28;;;;;;;6.32;4.90;;;;;;;19.02;49.89;99373.78;4878832;29;20049;-58
2023/09/11 09:32:54;;;;;;;7.15;4.80;;;;;;;19.14;49.90;99367.94;4878639;29;20494;-57
2023/09/11 09:35:33;;;;;;;7.97;5.97;;;;;;;19.20;49.77;99361.38;4877980;29;20518;-61
2023/09/11 09:37:59;;;;;;;8.82;5.75;;;;;;;19.33;49.29;99364.44;4873709;29;20045;-56
2023/09/11 09:40:38;;;;;;;8.02;5.40;;;;;;;19.44;49.66;99366.66;4866497;29;20119;-59
2023/09/11 09:43:06;;;;;;;8.35;4.75;;;;;;;19.55;48.66;99361.06;4864337;29;20061;-57
2023/09/11 09:45:39;;;;;;;7.63;5.00;;;;;;;19.63;48.25;99363.06;4878688;29;20053;-55
2023/09/11 09:48:19;;;;;;;7.70;5.57;;;;;;;19.60;48.87;99358.28;4877153;29;20131;-58
2023/09/11 09:50:53;;;;;;;7.65;5.70;;;;;;;19.43;49.17;99361.56;4878426;29;20569;-55
2023/09/11 09:53:31;;;;;;;7.28;5.55;;;;;;;19.28;48.69;99363.41;4878532;29;20048;-57
2023/09/11 09:56:04;;;;;;;6.35;4.90;;;;;;;19.03;48.98;99363.81;4877030;29;20109;-58
2023/09/11 09:58:36;;;;;;;6.30;4.30;;;;;;;18.81;49.31;99359.09;4878467;29;20044;-59
2023/09/11 10:01:14;;;;;;;6.20;4.90;;;;;;;18.72;49.64;99358.13;4877297;29;20468;-59
2023/09/11 10:03:48;;;;;;;6.35;4.85;;;;;;;18.68;50.03;99354.41;4878300;29;20465;-57
2023/09/11 10:06:15;;;;;;;7.28;4.60;;;;;;;18.69;49.69;99354.13;4877238;29;20435;-59
2023/09/11 10:08:41;;;;;;;7.03;4.85;;;;;;;18.74;49.81;99354.09;4878518;29;20070;-59
2023/09/11 10:11:07;;;;;;;6.65;4.60;;;;;;;18.82;49.55;99356.13;4878192;29;20053;-57
2023/09/11 10:13:35;;;;;;;7.15;4.60;;;;;;;19.04;49.42;99346.63;4878219;29;20144;-58
2023/09/11 10:16:01;;;;;;;7.47;4.85;;;;;;;19.30;48.55;99355.06;4878468;29;20049;-57
2023/09/11 10:18:31;;;;;;;9.73;4.93;;;;;;;19.50;48.20;99354.69;4861372;29;20041;-56
2023/09/11 10:20:58;;;;;;;7.47;5.65;;;;;;;19.71;47.46;99354.34;4861818;29;20181;-58
2023/09/11 10:23:24;;;;;;;9.25;5.90;;;;;;;19.85;47.28;99346.25;4877151;29;20048;-58
2023/09/11 10:26:29;;;;;;;8.55;5.50;;;;;;;19.94;47.21;99347.16;4878447;29;20044;-58
2023/09/11 10:29:54;;;;;;;8.02;5.30;;;;;;;20.09;46.71;99346.84;4873062;29;20051;-55
2023/09/11 10:32:42;;;;;;;9.77;6.00;;;;;;;19.97;48.06;99360.00;4845716;29;20423;-58
2023/09/11 10:35:09;;;;;;;9.20;5.70;;;;;;;19.72;48.12;99353.25;4861160;29;20415;-58
2023/09/11 10:37:35;;;;;;;7.80;6.13;;;;;;;19.57;48.85;99354.31;4877825;29;20550;-58
2023/09/11 10:40:03;;;;;;;8.25;6.22;;;;;;;19.39;48.96;99353.28;4867858;29;20057;-61
2023/09/11 10:42:29;;;;;;;7.78;5.68;;;;;;;19.32;49.33;99352.06;4859136;29;20109;-59
2023/09/11 10:44:56;;;;;;;9.35;6.10;;;;;;;19.25;49.40;99349.78;4868235;29;20076;-59
2023/09/11 10:47:22;;;;;;;9.10;5.43;;;;;;;19.20;49.86;99355.22;4877784;29;20480;-55
2023/09/11 10:49:52;;;;;;;7.82;5.82;;;;;;;19.15;49.69;99356.13;4876088;29;20060;-54
2023/09/11 10:52:17;;;;;;;8.27;5.70;;;;;;;19.15;49.92;99352.63;4877380;29;20052;-52
2023/09/11 10:54:43;;;;;;;8.77;5.35;;;;;;;19.17;49.39;99347.75;4877319;29;20693;-55
2023/09/11 10:57:09;;;;;;;9.45;5.13;;;;;;;19.28;48.94;99344.59;4876523;29;20136;-59
2023/09/11 10:59:35;;;;;;;10.07;5.43;;;;;;;19.44;48.60;99352.38;4877619;29;20044;-59
2023/09/11 11:02:01;;;;;;;6.03;4.82;;;;;;;19.62;48.34;99346.16;4860804;29;20036;-59
2023/09/11 11:04:31;;;;;;;8.85;5.47;;;;;;;19.81;47.48;99346.06;4875994;29;20060;-59
2023/09/11 11:06:59;;;;;;;12.30;5.83;;;;;;;19.88;47.22;99342.97;4845145;29;20041;-58
2023/09/11 11:09:32;;;;;;;11.05;6.18;;;;;;;19.93;47.67;99345.56;4877324;29;20671;-60
2023/09/11 11:12:08;;;;;;;9.05;6.28;;;;;;;19.95;47.78;99346.06;4877361;29;20616;-59
2023/09/11 11:14:35;;;;;;;13.00;6.57;;;;;;;20.08;47.98;99347.94;4877093;29;20111;-60
2023/09/11 11:17:10;;;;;;;8.00;5.88;;;;;;;20.19;47.24;99335.88;4877286;29;20048;-60
2023/09/11 11:19:37;;;;;;;11.45;5.53;;;;;;;20.23;47.17;99340.63;4860223;29;20057;-59
2023/09/11 11:22:07;;;;;;;6.75;4.97;;;;;;;20.25;47.06;99339.25;4877353;29;20189;-58
2023/09/11 11:24:37;;;;;;;8.15;4.65;;;;;;;20.22;46.76;99328.28;4876421;29;20525;-58